Race Results for…
The Liberty Center Fall Classic 5k

October 08, 2017 Results presented by Liberty Center Foundation and timed by GHG Timing
Participants:
292
Last Updated:
10/8/2017 9:00:56 AM
Stats

Leaderboards

Jump to a Leaderboard

5K RUN/WALK

Male - Overall
Bib Name Chip Elapsed Pace City Age
1 7600 ADAM THOMAS 00:16:16 05:14 min/mile HAMILTON 37
Female - Overall
Bib Name Chip Elapsed Pace City Age
1 7624 KELLY BOROWS 00:19:49 06:23 min/mile 22

Overall Results

Tip: Slide the results table left and right to view more.
292 entrants …
5k Run/Walk Results
Bib Name Chip Elapsed Age Division Gender City Gender Place Div Place Age Place Pace Gender Place Div Place Age Place
7600 ADAM THOMAS 00:16:16 37 5K RUN/WALK M HAMILTON 1 1 O/A 05:14 min/mile 1 1 O/A
7589 LOGAN STUMPF 00:17:06 17 5K RUN/WALK M WEST CHESTER 2 2 1 05:30 min/mile 2 2 1
7628 RYAN JONES 00:18:20 17 5K RUN/WALK M WEST CHESTER 3 3 2 05:54 min/mile 3 3 2
7463 ADAM JOHANTGES 00:18:26 17 5K RUN/WALK M LIBERTY TWP 4 4 3 05:56 min/mile 4 4 3
7597 ETHAN SWIFT 00:18:28 15 5K RUN/WALK M WEST CHESTER 5 5 1 05:57 min/mile 5 5 1
7486 DANIEL LEONARD 00:18:28 19 5K RUN/WALK M WEST CHESTER 6 6 4 05:57 min/mile 6 6 4
7350 NOAH CLIPPINGER 00:18:30 16 5K RUN/WALK M LIBERTY TOWNSHIP 7 7 5 05:58 min/mile 7 7 5
7507 JOE MISLANSKY 00:18:38 17 5K RUN/WALK M WEST CHESTER 8 8 6 06:00 min/mile 8 8 6
7308 CHRISTOPHER ANDERSON 00:18:46 43 5K RUN/WALK M LIBERTY TOWNSHIP 9 9 1 06:03 min/mile 9 9 1
7340 MAX CHANDLER 00:19:07 16 5K RUN/WALK M LIBERTY TWP. 10 10 7 06:10 min/mile 10 10 7
7543 BEN REIMER 00:19:15 17 5K RUN/WALK M WEST CHESTER 11 11 8 06:12 min/mile 11 11 8
7480 REESE KUHLMAN 00:19:16 16 5K RUN/WALK M LIBERTY TOWNSHIP 12 12 9 06:12 min/mile 12 12 9
7541 MATTHEW PROCK 00:19:16 16 5K RUN/WALK M LIBERTY TOWNSHIP 13 13 10 06:12 min/mile 13 13 10
7481 TRENTON KUHLMAN 00:19:17 16 5K RUN/WALK M LIBERTY TOWNSHIP 14 14 11 06:13 min/mile 14 14 11
7379 NICK DRAGINOFF 00:19:40 15 5K RUN/WALK M WEST CHESTER 15 15 2 06:20 min/mile 15 15 2
7624 KELLY BOROWS 00:19:49 22 5K RUN/WALK F 1 16 O/A 06:23 min/mile 1 16 O/A
7450 DANIELLE HORTER 00:19:51 15 5K RUN/WALK F 2 17 1 06:24 min/mile 2 17 1
7518 ALICIA NEUMEIER 00:19:51 16 5K RUN/WALK F LIBERTY TOWNSHIP 3 18 1 06:24 min/mile 3 18 1
7633 GRADY ROGERS 00:19:53 35 5K RUN/WALK M LIBERTY TOWNSHIP 16 19 1 06:24 min/mile 16 19 1
7647 GRANT SPICER 00:20:02 16 5K RUN/WALK M 17 20 12 06:27 min/mile 17 20 12
7351 JACK COLE 00:20:04 15 5K RUN/WALK M WEST CHESTER 18 21 3 06:28 min/mile 18 21 3
7520 PAYTON NICKULIS 00:20:21 16 5K RUN/WALK M WEST CHESTER 19 22 13 06:33 min/mile 19 22 13
7426 NATE HEINZELMAN 00:21:07 14 5K RUN/WALK M LIBERTY TWP 20 23 4 06:48 min/mile 20 23 4
7652 NATE ALBRECHT 00:21:32 16 5K RUN/WALK M 21 24 14 06:56 min/mile 21 24 14
7542 ERIN RAIRDEN 00:21:37 36 5K RUN/WALK F WEST CHESTER 4 25 1 06:58 min/mile 4 25 1
7425 DREW HEINZELMAN 00:22:00 14 5K RUN/WALK M LIBERTY TWP 22 26 5 07:05 min/mile 22 26 5
7536 KYLE POPPE 00:22:11 14 5K RUN/WALK M LIBERTY TOWNSHIP 23 27 6 07:09 min/mile 23 27 6
7416 KASEY HANES 00:22:16 15 5K RUN/WALK F WEST CHESTER 5 28 2 07:10 min/mile 5 28 2
8706 HAILEY WILSON 00:22:18 12 5K RUN/WALK F 6 29 1 07:11 min/mile 6 29 1
7474 ANNA KLUESENER 00:22:18 15 5K RUN/WALK F WESTCHESTER 7 30 3 07:11 min/mile 7 30 3
7309 RACHEL ANDERSON 00:22:19 15 5K RUN/WALK F LIBERTY TOWNSHIP 8 31 4 07:11 min/mile 8 31 4
7497 LAUREN MCGARVEY 00:22:19 16 5K RUN/WALK F WEST CHESTER 9 32 2 07:11 min/mile 9 32 2
8712 DANNI STOUGHTON 00:22:25 16 5K RUN/WALK F 10 33 3 07:13 min/mile 10 33 3
7377 PRESTON DORSEY 00:22:50 6 5K RUN/WALK M HAMILTON 24 34 1 07:21 min/mile 24 34 1
7353 STEVE COLE 00:22:51 55 5K RUN/WALK M WEST CHESTER 25 35 1 07:22 min/mile 25 35 1
7504 KEN MIKKELSON 00:22:56 54 5K RUN/WALK M WEST CHESTER 26 36 1 07:23 min/mile 26 36 1
7418 KELSI HARRIS 00:23:02 14 5K RUN/WALK F LIBERTY TOWNSHIP 11 37 5 07:25 min/mile 11 37 5
7371 LAURA DANIELS 00:23:03 17 5K RUN/WALK F LIBERTY TWP. 12 38 4 07:26 min/mile 12 38 4
7302 ALEX ACKERMAN 00:23:03 15 5K RUN/WALK M WEST CHESTER 27 39 7 07:26 min/mile 27 39 7
7521 PAXTON OBERHAUS 00:23:11 14 5K RUN/WALK F LIBERTY TOWNSHIP 13 40 6 07:28 min/mile 13 40 6
7601 HOLLY THOMPSON 00:23:12 17 5K RUN/WALK F 14 41 5 07:29 min/mile 14 41 5
7445 CLARE HOLTMEIER 00:23:12 17 5K RUN/WALK F WEST CHESTE 15 42 6 07:29 min/mile 15 42 6
8709 GAVIN MEYERS 00:23:18 15 5K RUN/WALK M 28 43 8 07:30 min/mile 28 43 8
7477 VINCE KORNAU 00:23:24 15 5K RUN/WALK M 29 44 9 07:32 min/mile 29 44 9
8714 JAKE LEMEN 00:23:25 18 5K RUN/WALK M 30 45 15 07:33 min/mile 30 45 15
7396 AIDEN FRANK 00:23:26 14 5K RUN/WALK M WEST CHESTER 31 46 10 07:33 min/mile 31 46 10
7588 IAN STUMPF 00:23:28 16 5K RUN/WALK M WEST CHESTER 32 47 16 07:34 min/mile 32 47 16
7625 GRACE KEITH 00:23:32 17 5K RUN/WALK F 16 48 7 07:35 min/mile 16 48 7
7567 ISABELLA SCHNUR 00:23:45 15 5K RUN/WALK F LIBERTY TWP 17 49 7 07:39 min/mile 17 49 7
7587 MIKAYLA STRAUSS 00:23:47 17 5K RUN/WALK F LIBERTY TOWNSHIP 18 50 8 07:40 min/mile 18 50 8
292 entrants …

Winners

Tip: Slide the results table left and right to view more.
Overall
Bib Name Chip Elapsed Age Division Gender City Gender Place Div Place Age Place Pace Gender Place Div Place Age Place
7600 ADAM THOMAS 00:16:16 37 5K RUN/WALK M HAMILTON 1 1 O/A 05:14 min/mile 1 1 O/A
7624 KELLY BOROWS 00:19:49 22 5K RUN/WALK F 1 16 O/A 06:23 min/mile 1 16 O/A
1 - 12
Bib Name Chip Elapsed Age Division Gender City Gender Place Div Place Age Place Pace Gender Place Div Place Age Place
7377 PRESTON DORSEY 00:22:50 6 5K RUN/WALK M HAMILTON 24 34 1 07:21 min/mile 24 34 1
7384 STEVEN EMBRY 00:24:56 12 5K RUN/WALK M 43 71 2 08:02 min/mile 43 71 2
7432 CARSON HILL 00:27:36 12 5K RUN/WALK M LIBERTY TOWNSHIP 61 104 3 08:54 min/mile 61 104 3
7599 TYLER SWISSHELM 00:28:55 12 5K RUN/WALK M WEST CHESTER 65 115 4 09:19 min/mile 65 115 4
7444 WILLIAM HOLTHAUS 00:37:31 12 5K RUN/WALK M LIBERTY TOWNSHIP 86 187 5 12:06 min/mile 86 187 5
8706 HAILEY WILSON 00:22:18 12 5K RUN/WALK F 6 29 1 07:11 min/mile 6 29 1
7381 ZOEY DUNHAM 00:25:05 12 5K RUN/WALK F WEST CHESTER 30 73 2 08:05 min/mile 30 73 2
7631 CADENCE GAMBREL 00:29:19 12 5K RUN/WALK F WESTCHESTER 53 118 3 09:27 min/mile 53 118 3
7653 REBEKAH REUSS 00:29:24 10 5K RUN/WALK F 56 122 4 09:29 min/mile 56 122 4
7456 OLIVIA HUFFMAN 00:36:00 12 5K RUN/WALK F WEST CHESTER 98 182 5 11:36 min/mile 98 182 5
13 - 15
Bib Name Chip Elapsed Age Division Gender City Gender Place Div Place Age Place Pace Gender Place Div Place Age Place
7597 ETHAN SWIFT 00:18:28 15 5K RUN/WALK M WEST CHESTER 5 5 1 05:57 min/mile 5 5 1
7379 NICK DRAGINOFF 00:19:40 15 5K RUN/WALK M WEST CHESTER 15 15 2 06:20 min/mile 15 15 2
7351 JACK COLE 00:20:04 15 5K RUN/WALK M WEST CHESTER 18 21 3 06:28 min/mile 18 21 3
7426 NATE HEINZELMAN 00:21:07 14 5K RUN/WALK M LIBERTY TWP 20 23 4 06:48 min/mile 20 23 4
7425 DREW HEINZELMAN 00:22:00 14 5K RUN/WALK M LIBERTY TWP 22 26 5 07:05 min/mile 22 26 5
7450 DANIELLE HORTER 00:19:51 15 5K RUN/WALK F 2 17 1 06:24 min/mile 2 17 1
7416 KASEY HANES 00:22:16 15 5K RUN/WALK F WEST CHESTER 5 28 2 07:10 min/mile 5 28 2
7474 ANNA KLUESENER 00:22:18 15 5K RUN/WALK F WESTCHESTER 7 30 3 07:11 min/mile 7 30 3
7309 RACHEL ANDERSON 00:22:19 15 5K RUN/WALK F LIBERTY TOWNSHIP 8 31 4 07:11 min/mile 8 31 4
7418 KELSI HARRIS 00:23:02 14 5K RUN/WALK F LIBERTY TOWNSHIP 11 37 5 07:25 min/mile 11 37 5
16 - 19
Bib Name Chip Elapsed Age Division Gender City Gender Place Div Place Age Place Pace Gender Place Div Place Age Place
7589 LOGAN STUMPF 00:17:06 17 5K RUN/WALK M WEST CHESTER 2 2 1 05:30 min/mile 2 2 1
7628 RYAN JONES 00:18:20 17 5K RUN/WALK M WEST CHESTER 3 3 2 05:54 min/mile 3 3 2
7463 ADAM JOHANTGES 00:18:26 17 5K RUN/WALK M LIBERTY TWP 4 4 3 05:56 min/mile 4 4 3
7486 DANIEL LEONARD 00:18:28 19 5K RUN/WALK M WEST CHESTER 6 6 4 05:57 min/mile 6 6 4
7350 NOAH CLIPPINGER 00:18:30 16 5K RUN/WALK M LIBERTY TOWNSHIP 7 7 5 05:58 min/mile 7 7 5
7518 ALICIA NEUMEIER 00:19:51 16 5K RUN/WALK F LIBERTY TOWNSHIP 3 18 1 06:24 min/mile 3 18 1
7497 LAUREN MCGARVEY 00:22:19 16 5K RUN/WALK F WEST CHESTER 9 32 2 07:11 min/mile 9 32 2
8712 DANNI STOUGHTON 00:22:25 16 5K RUN/WALK F 10 33 3 07:13 min/mile 10 33 3
7371 LAURA DANIELS 00:23:03 17 5K RUN/WALK F LIBERTY TWP. 12 38 4 07:26 min/mile 12 38 4
7601 HOLLY THOMPSON 00:23:12 17 5K RUN/WALK F 14 41 5 07:29 min/mile 14 41 5
20 - 24
Bib Name Chip Elapsed Age Division Gender City Gender Place Div Place Age Place Pace Gender Place Div Place Age Place
7429 SARAH HICKS 00:46:08 21 5K RUN/WALK F WEST CHESTER 133 232 1 14:52 min/mile 133 232 1
7524 JACKIE ONEY 01:01:30 21 5K RUN/WALK F LIBERTY TWP 177 287 2 19:50 min/mile 177 287 2
25 - 29
Bib Name Chip Elapsed Age Division Gender City Gender Place Div Place Age Place Pace Gender Place Div Place Age Place
7604 ROSS TONYAN 00:31:32 28 5K RUN/WALK M LIBERTY TWP 75 146 1 10:10 min/mile 75 146 1
7473 BRANDON KESSLER 00:40:05 28 5K RUN/WALK M LEBANON 87 199 2 12:55 min/mile 87 199 2
7438 KAYLA HOFFNEIER 00:26:00 26 5K RUN/WALK F 35 87 1 08:23 min/mile 35 87 1
7603 ELIZABETH TONYAN 00:31:30 26 5K RUN/WALK F LIBERTY TWP 71 145 2 10:09 min/mile 71 145 2
7505 EMILY MILLER 00:32:40 29 5K RUN/WALK F LEBANON 79 157 3 10:32 min/mile 79 157 3
7531 LORRIN PATRICK 00:32:42 29 5K RUN/WALK F MIDDLETOWN 80 158 4 10:32 min/mile 80 158 4
30 - 34
Bib Name Chip Elapsed Age Division Gender City Gender Place Div Place Age Place Pace Gender Place Div Place Age Place
7530 JOSH PATRICK 00:32:44 30 5K RUN/WALK M MIDDLETOWN 79 159 1 10:33 min/mile 79 159 1
7471 TONY JOHNSTON 00:33:29 34 5K RUN/WALK M LIBERTY TOWNSHIP 82 171 2 10:48 min/mile 82 171 2
7466 JASON JOHNSON 00:36:35 34 5K RUN/WALK M 85 183 3 11:48 min/mile 85 183 3
7304 KOREY ACKERMAN 00:40:11 34 5K RUN/WALK M LIBERTY TOWNSHIP 89 201 4 12:57 min/mile 89 201 4
7402 DANI GARNER 00:28:13 31 5K RUN/WALK F WEST CHESTER 49 112 1 09:06 min/mile 49 112 1
7465 JACLYN JOHNSON 00:36:37 34 5K RUN/WALK F 99 184 2 11:48 min/mile 99 184 2
7303 ERIN ACKERMAN 00:40:18 34 5K RUN/WALK F LIBERTY TOWNSHIP 113 202 3 13:00 min/mile 113 202 3
7437 HANNAH HINDLE 00:42:16 30 5K RUN/WALK F 125 219 4 13:38 min/mile 125 219 4
35 - 39
Bib Name Chip Elapsed Age Division Gender City Gender Place Div Place Age Place Pace Gender Place Div Place Age Place
7633 GRADY ROGERS 00:19:53 35 5K RUN/WALK M LIBERTY TOWNSHIP 16 19 1 06:24 min/mile 16 19 1
7419 NATHAN HARRIS 00:26:13 39 5K RUN/WALK M WEST CHESTER 53 88 2 08:27 min/mile 53 88 2
7542 ERIN RAIRDEN 00:21:37 36 5K RUN/WALK F WEST CHESTER 4 25 1 06:58 min/mile 4 25 1
7417 JENNIE HARRIS 00:25:33 37 5K RUN/WALK F WEST CHESTER 31 80 2 08:14 min/mile 31 80 2
7609 KATHERINE VANDERHORST 00:27:02 35 5K RUN/WALK F WEST CHESTER 42 98 3 08:43 min/mile 42 98 3
7517 JESSICA NETHERS 00:31:24 35 5K RUN/WALK F 70 144 4 10:07 min/mile 70 144 4
7370 MARTI DAGLEY 00:42:16 36 5K RUN/WALK F 124 218 5 13:38 min/mile 124 218 5
40 - 44
Bib Name Chip Elapsed Age Division Gender City Gender Place Div Place Age Place Pace Gender Place Div Place Age Place
7308 CHRISTOPHER ANDERSON 00:18:46 43 5K RUN/WALK M LIBERTY TOWNSHIP 9 9 1 06:03 min/mile 9 9 1
7605 MIKE TRIMBLE 00:24:09 42 5K RUN/WALK M LIBERTY TWP 39 61 2 07:47 min/mile 39 61 2
8701 JASON PRICE 00:32:40 43 5K RUN/WALK M LIBERTY TOWNSHIP 78 156 3 10:32 min/mile 78 156 3
7528 MATT OPP 00:49:04 43 5K RUN/WALK M LIBERTY TWP 103 252 4 15:49 min/mile 103 252 4
7420 GREG HARTMANN 01:02:36 43 5K RUN/WALK M LIBERTY TOWNSHIP 111 291 5 20:11 min/mile 111 291 5
7380 LAURIE DUNHAM 00:25:42 43 5K RUN/WALK F WEST CHESTER 33 82 1 08:17 min/mile 33 82 1
7385 JESSICA EPSTEIN 00:29:28 40 5K RUN/WALK F WEST CHESTER 57 124 2 09:30 min/mile 57 124 2
7527 LILIANE OPP 00:30:04 43 5K RUN/WALK F LIBERTY TWP 60 129 3 09:41 min/mile 60 129 3
7538 REBECCA POWELL 00:31:11 42 5K RUN/WALK F HAMILTON 68 142 4 10:03 min/mile 68 142 4
7608 SHERI TYRANSKI 00:31:12 42 5K RUN/WALK F LIBERTY TWP 69 143 5 10:03 min/mile 69 143 5
45 - 49
Bib Name Chip Elapsed Age Division Gender City Gender Place Div Place Age Place Pace Gender Place Div Place Age Place
7580 STEVE SILVERBERG 00:27:01 46 5K RUN/WALK M MASON 56 97 1 08:42 min/mile 56 97 1
7479 DENNIS KUHLMAN 00:27:07 46 5K RUN/WALK M LIBERTY TOWNSHIP 57 99 2 08:44 min/mile 57 99 2
7596 TED SWAIN 00:27:21 46 5K RUN/WALK M LIBERTY TOWNSHIP 60 103 3 08:49 min/mile 60 103 3
7640 SCOTT STRAUSS 00:28:04 47 5K RUN/WALK M 63 110 4 09:03 min/mile 63 110 4
7615 HAROLD JAY WASHBURN 00:29:20 47 5K RUN/WALK M LIBERTY TWP. 66 120 5 09:27 min/mile 66 120 5
7644 STEPHANIE LEAHY 00:25:36 49 5K RUN/WALK F WEST CHESTER 32 81 1 08:15 min/mile 32 81 1
8707 KALI ZAGORIANOS 00:30:04 46 5K RUN/WALK F 61 130 2 09:41 min/mile 61 130 2
7322 LINDA BEALS 00:31:10 46 5K RUN/WALK F WEST CHESTER 67 141 3 10:03 min/mile 67 141 3
7355 MARIANNE COLLEARY 00:31:58 49 5K RUN/WALK F WEST CHESTER 75 152 4 10:18 min/mile 75 152 4
7470 HOLLY JOHNSTON 00:33:30 48 5K RUN/WALK F LIBERTY TOWNSHIP 90 172 5 10:48 min/mile 90 172 5
50 - 54
Bib Name Chip Elapsed Age Division Gender City Gender Place Div Place Age Place Pace Gender Place Div Place Age Place
7504 KEN MIKKELSON 00:22:56 54 5K RUN/WALK M WEST CHESTER 26 36 1 07:23 min/mile 26 36 1
7636 HOWARD BROOKSHIRE 00:24:14 51 5K RUN/WALK M HAMILTON 40 63 2 07:49 min/mile 40 63 2
7397 BRAD FRANK 00:24:32 53 5K RUN/WALK M WEST CHESTER 41 66 3 07:54 min/mile 41 66 3
7404 MIKE GIBBONS 00:27:18 52 5K RUN/WALK M LIBERTY TOWNSHIP 59 102 4 08:48 min/mile 59 102 4
7448 LARRY HONIGFORD 00:27:38 51 5K RUN/WALK M 62 105 5 08:54 min/mile 62 105 5
7378 DAWN KATHLEEN DOWNS 00:24:19 52 5K RUN/WALK F LIBERTY TOWNSHIP 24 64 1 07:50 min/mile 24 64 1
7369 LINDA CROY 00:25:57 50 5K RUN/WALK F HAMILTON 34 86 2 08:22 min/mile 34 86 2
7476 TRACEY KORNAU 00:32:47 50 5K RUN/WALK F MIDDLETOWN 82 161 3 10:34 min/mile 82 161 3
7461 LISA JAMES 00:40:24 52 5K RUN/WALK F MASON 114 203 4 13:01 min/mile 114 203 4
7491 KELLY MAHON 00:47:13 50 5K RUN/WALK F LIBERTY TOWNSHIP 140 240 5 15:13 min/mile 140 240 5
55 - 59
Bib Name Chip Elapsed Age Division Gender City Gender Place Div Place Age Place Pace Gender Place Div Place Age Place
7353 STEVE COLE 00:22:51 55 5K RUN/WALK M WEST CHESTER 25 35 1 07:22 min/mile 25 35 1
7563 THOMAS SAWYER 00:45:18 56 5K RUN/WALK M WEST CHESTER 99 229 2 14:36 min/mile 99 229 2
7546 KATHY REYNOLDS 00:32:51 57 5K RUN/WALK F 84 163 1 10:35 min/mile 84 163 1
7363 LISA COX 00:54:16 55 5K RUN/WALK F LIBERTY TOWNSHIP 165 270 2 17:30 min/mile 165 270 2
60 - 64
Bib Name Chip Elapsed Age Division Gender City Gender Place Div Place Age Place Pace Gender Place Div Place Age Place
7545 DENNIS REYNOLDS 00:32:51 61 5K RUN/WALK M 80 164 1 10:35 min/mile 80 164 1
7454 PHYLLIS HOWARD 00:31:35 62 5K RUN/WALK F LIBERTY TOWNSHIP 72 147 1 10:11 min/mile 72 147 1
65 - 69
Bib Name Chip Elapsed Age Division Gender City Gender Place Div Place Age Place Pace Gender Place Div Place Age Place
7639 TIM COLLETT 00:24:41 69 5K RUN/WALK M 42 68 1 07:57 min/mile 42 68 1
7592 DON SUNDRUP 00:57:31 67 5K RUN/WALK M LIBERTY TWP 110 286 2 18:33 min/mile 110 286 2
7613 JAYNE WALKER 00:48:14 68 5K RUN/WALK F 149 251 1 15:33 min/mile 149 251 1
7593 LOIS SUNDRUP 01:01:33 65 5K RUN/WALK F LIBERTY TWP 179 289 2 19:51 min/mile 179 289 2
70 - 97
Bib Name Chip Elapsed Age Division Gender City Gender Place Div Place Age Place Pace Gender Place Div Place Age Place
98 - 99
Bib Name Chip Elapsed Age Division Gender City Gender Place Div Place Age Place Pace Gender Place Div Place Age Place

Race Info

Participants:
292
Last Updated:
10/8/2017 9:00:56 AM
Tip: Slide the results table left and right to view more.

Search for Name, Bib, City, State or Team
in the field above… by clicking the icon below…

Race Statistics

5K RUN/WALK - 292


Male
Total Finishers Avg Pace
111 09:46

Female
Total Finishers Avg Pace
181 11:58
This event was timed using RM Timing Systems
Take control of your event

Have a question or need to make a correction?

Submit a Result Correction